Terminal Aerodrome Forecast
Issued by NWS

Home | Current Version | Previous Version | Text Only | Print | Product List | Glossary Off
Versions: 1 2 3 4 5 6 7 8 9 10 11 12 13 14 15 16 17 18 19

000
FTUS43 KABR 311100
TAFMBG
TAF
KMBG 311140Z 3112/0112 27010KT P6SM SCT150
     FM311500 30013KT P6SM BKN100
     FM311800 31014KT P6SM VCSH BKN070
     FM312200 29008KT P6SM BKN200
     FM010100 30005KT P6SM SKC=

USA.gov is the U.S. government's official web portal to all federal, state and local government web resources and services.